createdAt,value
2018-09-17T00:01:28.410Z,79.05
2018-09-17T00:03:57.249Z,79.98
2018-09-17T00:06:26.241Z,79.22
2018-09-17T00:08:55.177Z,79.78
2018-09-17T00:11:24.167Z,80.01
2018-09-17T00:13:53.317Z,79.47
2018-09-17T00:16:22.261Z,79.61
2018-09-17T00:18:51.171Z,79.15
2018-09-17T00:21:20.185Z,78.96
2018-09-17T00:23:49.112Z,78.18
2018-09-17T00:26:18.115Z,78.92
2018-09-17T00:28:47.027Z,79.69
2018-09-17T00:31:15.903Z,79.23
2018-09-17T00:33:44.774Z,78.77
2018-09-17T00:36:13.729Z,79.47
2018-09-17T00:38:42.696Z,79.93
2018-09-17T00:41:11.589Z,79.45
2018-09-17T00:43:40.640Z,80.30
2018-09-17T00:46:10.584Z,79.65
2018-09-17T00:48:39.445Z,79.63
2018-09-17T00:51:08.332Z,79.48
2018-09-17T00:53:37.190Z,79.45
2018-09-17T00:56:06.292Z,80.47
2018-09-17T00:58:35.242Z,79.89
2018-09-17T01:01:05.165Z,79.94
2018-09-17T01:03:34.036Z,79.72
2018-09-17T01:06:03.121Z,79.96
2018-09-17T01:08:32.039Z,79.88
2018-09-17T01:11:00.972Z,80.58
2018-09-17T01:13:29.927Z,80.95
2018-09-17T01:15:58.804Z,80.86
2018-09-17T01:18:27.674Z,80.85
2018-09-17T01:20:56.641Z,80.34
2018-09-17T01:23:25.535Z,79.97
2018-09-17T01:25:54.437Z,80.28
2018-09-17T01:28:23.453Z,80.37
2018-09-17T01:30:53.393Z,79.86
2018-09-17T01:33:22.270Z,80.80
2018-09-17T01:35:52.170Z,80.55
2018-09-17T01:38:21.081Z,81.59
2018-09-17T01:40:50.042Z,81.37
2018-09-17T01:43:20.122Z,81.32
2018-09-17T01:45:49.021Z,81.36
2018-09-17T01:48:17.898Z,81.95
2018-09-17T01:50:46.860Z,81.39
2018-09-17T01:53:15.775Z,81.03
2018-09-17T01:55:44.645Z,80.87
2018-09-17T01:58:13.530Z,80.47
2018-09-17T02:00:42.517Z,81.49
2018-09-17T02:03:11.411Z,80.81
2018-09-17T02:05:41.330Z,81.15
2018-09-17T02:08:10.239Z,80.60
2018-09-17T02:10:39.141Z,80.54
2018-09-17T02:13:08.073Z,80.11
2018-09-17T02:15:36.907Z,80.07
2018-09-17T02:18:05.764Z,79.77
2018-09-17T02:20:34.691Z,79.72
2018-09-17T02:23:03.592Z,80.47
2018-09-17T02:25:32.559Z,79.83
2018-09-17T02:28:01.411Z,79.44
2018-09-17T02:30:30.313Z,80.07
2018-09-17T02:32:59.271Z,79.07
2018-09-17T02:35:28.206Z,79.23
2018-09-17T02:37:57.138Z,79.19
2018-09-17T02:40:26.016Z,79.33
2018-09-17T02:42:55.004Z,78.66
2018-09-17T02:45:23.873Z,78.46
2018-09-17T02:47:52.845Z,78.75
2018-09-17T02:50:21.813Z,78.91
2018-09-17T02:52:50.786Z,79.30
2018-09-17T02:55:19.725Z,79.06
2018-09-17T02:57:48.658Z,79.13
2018-09-17T03:00:20.249Z,79.13
2018-09-17T03:02:50.858Z,78.97
2018-09-17T03:05:19.786Z,79.67
2018-09-17T03:07:48.732Z,77.99
2018-09-17T03:10:17.792Z,78.26
2018-09-17T03:12:46.674Z,79.20
2018-09-17T03:15:26.760Z,79.46
2018-09-17T03:17:55.662Z,79.49
2018-09-17T03:20:24.611Z,78.82
2018-09-17T03:22:53.470Z,78.72
2018-09-17T03:25:22.439Z,78.80
2018-09-17T03:27:51.381Z,78.75
2018-09-17T03:30:20.613Z,79.55
2018-09-17T03:32:50.565Z,78.70
2018-09-17T03:35:19.456Z,78.75
2018-09-17T03:37:48.350Z,79.15
2018-09-17T03:40:17.277Z,79.18
2018-09-17T03:42:46.310Z,78.75
2018-09-17T03:45:15.258Z,78.81
2018-09-17T03:47:44.216Z,78.89
2018-09-17T03:50:13.173Z,78.45
2018-09-17T03:52:42.022Z,78.56
2018-09-17T03:55:10.893Z,78.79
2018-09-17T03:57:39.880Z,79.22
2018-09-17T04:00:08.872Z,79.97
2018-09-17T04:02:37.825Z,80.02
2018-09-17T04:05:07.107Z,79.31
2018-09-17T04:07:36.101Z,79.87
2018-09-17T04:10:05.193Z,80.21
2018-09-17T04:12:34.212Z,79.98
2018-09-17T04:15:03.205Z,79.70
2018-09-17T04:17:33.108Z,79.25
2018-09-17T04:20:03.036Z,79.82
2018-09-17T04:22:32.037Z,79.98
2018-09-17T04:25:01.034Z,79.40
2018-09-17T04:27:30.029Z,79.09
2018-09-17T04:29:59.072Z,79.69
2018-09-17T04:32:28.011Z,78.97
2018-09-17T04:34:57.031Z,79.03
2018-09-17T04:37:25.983Z,79.56
2018-09-17T04:39:56.001Z,78.66
2018-09-17T04:42:24.915Z,79.44
2018-09-17T04:44:53.897Z,78.48
2018-09-17T04:47:23.847Z,78.47
2018-09-17T04:49:52.937Z,78.20
2018-09-17T04:52:22.018Z,78.04
2018-09-17T04:54:50.968Z,79.14
2018-09-17T04:57:20.974Z,79.52
2018-09-17T04:59:49.932Z,78.94
2018-09-17T05:02:18.887Z,78.53
2018-09-17T05:04:48.085Z,78.45
2018-09-17T05:07:17.129Z,78.87
2018-09-17T05:09:46.102Z,78.75
2018-09-17T05:12:15.065Z,79.16
2018-09-17T05:14:43.932Z,78.51
2018-09-17T05:17:12.891Z,79.01
2018-09-17T05:19:41.950Z,78.26
2018-09-17T05:22:11.003Z,78.63
2018-09-17T05:24:39.949Z,78.38
2018-09-17T05:27:10.020Z,78.54
2018-09-17T05:29:38.917Z,78.91
2018-09-17T05:32:07.825Z,79.42
2018-09-17T05:34:37.758Z,79.13
2018-09-17T05:37:06.755Z,79.44
2018-09-17T05:39:35.773Z,79.73
2018-09-17T05:42:04.718Z,79.06
2018-09-17T05:44:34.728Z,79.41
2018-09-17T05:47:03.651Z,79.33
2018-09-17T05:49:32.640Z,78.91
2018-09-17T05:52:01.603Z,79.31
2018-09-17T05:54:30.540Z,79.71
2018-09-17T05:56:59.532Z,78.60
2018-09-17T05:59:28.586Z,78.73
2018-09-17T06:01:58.508Z,79.17
2018-09-17T06:04:28.452Z,79.50
2018-09-17T06:06:57.427Z,79.17
2018-09-17T06:09:27.251Z,79.24
2018-09-17T06:11:56.301Z,78.97
2018-09-17T06:14:25.237Z,79.40
2018-09-17T06:16:55.298Z,79.50
2018-09-17T06:19:24.274Z,79.70
2018-09-17T06:21:53.209Z,79.43
2018-09-17T06:24:22.097Z,78.51
2018-09-17T06:26:51.202Z,79.15
2018-09-17T06:29:20.462Z,78.34
2018-09-17T06:31:50.403Z,78.81
2018-09-17T06:34:19.340Z,79.60
2018-09-17T06:36:48.314Z,79.21
2018-09-17T06:39:17.207Z,78.54
2018-09-17T06:41:46.119Z,78.78
2018-09-17T06:44:15.107Z,78.53
2018-09-17T06:46:44.613Z,79.02
2018-09-17T06:49:13.831Z,78.23
2018-09-17T06:51:44.033Z,77.56
2018-09-17T06:54:13.016Z,77.88
2018-09-17T06:56:42.033Z,78.69
2018-09-17T06:59:10.996Z,78.76
2018-09-17T07:01:40.967Z,78.47
2018-09-17T07:04:09.905Z,77.68
2018-09-17T07:06:38.812Z,77.67
2018-09-17T07:09:09.733Z,77.32
2018-09-17T07:11:38.893Z,77.74
2018-09-17T07:14:07.898Z,77.05
2018-09-17T07:16:36.834Z,77.24
2018-09-17T07:19:06.159Z,77.66
2018-09-17T07:21:35.141Z,77.35
2018-09-17T07:24:04.142Z,76.76
2018-09-17T07:26:33.136Z,76.93
2018-09-17T07:29:02.349Z,76.35
2018-09-17T07:31:31.620Z,75.67
2018-09-17T07:34:00.945Z,75.12
2018-09-17T07:36:30.149Z,75.30
2018-09-17T07:38:59.092Z,75.24
2018-09-17T07:41:29.052Z,75.22
2018-09-17T07:43:58.000Z,75.33
2018-09-17T07:46:26.937Z,75.33
2018-09-17T07:48:55.910Z,74.76
2018-09-17T07:51:24.807Z,73.97
2018-09-17T07:53:53.738Z,73.79
2018-09-17T07:56:22.636Z,73.91
2018-09-17T07:58:51.611Z,72.85
2018-09-17T08:01:20.822Z,72.91
2018-09-17T08:03:50.044Z,73.17
2018-09-17T08:06:19.954Z,72.78
2018-09-17T08:08:48.900Z,72.44
2018-09-17T08:11:17.858Z,71.92
2018-09-17T08:13:47.856Z,72.26
2018-09-17T08:16:17.751Z,72.12
2018-09-17T08:18:46.715Z,71.85
2018-09-17T08:21:15.659Z,71.96
2018-09-17T08:23:45.578Z,71.90
2018-09-17T08:26:14.678Z,71.88
2018-09-17T08:28:43.659Z,71.24
2018-09-17T08:31:12.801Z,71.89
2018-09-17T08:33:42.032Z,71.75
2018-09-17T08:36:12.011Z,71.48
2018-09-17T08:38:41.001Z,71.51
2018-09-17T08:41:10.111Z,71.08
2018-09-17T08:43:40.108Z,71.52
2018-09-17T08:46:08.990Z,70.73
2018-09-17T08:48:37.987Z,70.80
2018-09-17T08:51:06.953Z,70.31
2018-09-17T08:53:36.855Z,70.68
2018-09-17T08:56:13.043Z,69.75
2018-09-17T08:58:47.320Z,69.88
2018-09-17T09:01:22.783Z,69.68
2018-09-17T09:03:57.925Z,69.57
2018-09-17T09:06:32.229Z,68.94
2018-09-17T09:09:01.275Z,68.67
2018-09-17T09:11:35.601Z,67.86
2018-09-17T09:14:07.520Z,68.08
2018-09-17T09:16:36.474Z,67.38
2018-09-17T09:19:05.433Z,67.89
2018-09-17T09:21:34.407Z,66.74
2018-09-17T09:24:04.333Z,66.92
2018-09-17T09:26:33.299Z,67.62
2018-09-17T09:29:02.338Z,66.66
2018-09-17T09:31:31.295Z,66.13
2018-09-17T09:34:01.239Z,66.00
2018-09-17T09:36:31.109Z,65.69
2018-09-17T09:39:00.075Z,65.57
2018-09-17T09:41:30.029Z,65.54
2018-09-17T09:43:58.904Z,64.86
2018-09-17T09:46:28.363Z,65.12
2018-09-17T09:48:59.250Z,64.59
2018-09-17T09:51:28.168Z,64.68
2018-09-17T09:53:57.177Z,64.50
2018-09-17T09:56:27.446Z,62.41
2018-09-17T09:58:56.435Z,61.36
2018-09-17T10:01:31.426Z,61.20
2018-09-17T10:04:05.691Z,61.04
2018-09-17T10:06:34.723Z,61.10
2018-09-17T10:09:10.723Z,60.99
2018-09-17T10:11:44.912Z,60.21
2018-09-17T10:14:19.312Z,60.31
2018-09-17T10:16:54.722Z,60.52
2018-09-17T10:19:26.121Z,59.98
2018-09-17T10:21:55.990Z,59.09
2018-09-17T10:24:25.354Z,58.86
2018-09-17T10:26:55.710Z,59.23
2018-09-17T10:29:25.907Z,59.46
2018-09-17T10:31:55.920Z,58.93
2018-09-17T10:34:24.955Z,57.91
2018-09-17T10:36:53.847Z,57.58
2018-09-17T10:39:22.795Z,57.11
2018-09-17T10:41:52.684Z,57.64
2018-09-17T10:44:21.663Z,57.10
2018-09-17T10:46:50.631Z,55.58
2018-09-17T10:49:19.556Z,55.19
2018-09-17T10:51:49.444Z,54.70
2018-09-17T10:54:19.379Z,52.79
2018-09-17T10:56:48.723Z,53.30
2018-09-17T10:59:20.390Z,54.05
2018-09-17T11:01:49.847Z,54.19
2018-09-17T11:04:21.208Z,54.05
2018-09-17T11:06:50.564Z,53.77
2018-09-17T11:09:19.502Z,54.09
2018-09-17T11:11:49.064Z,52.19
2018-09-17T11:14:18.367Z,51.57
2018-09-17T11:16:48.709Z,52.26
2018-09-17T11:19:18.076Z,52.11
2018-09-17T11:21:47.434Z,51.17
2018-09-17T11:24:16.460Z,49.44
2018-09-17T11:26:45.531Z,50.22
2018-09-17T11:29:14.526Z,50.26
2018-09-17T11:31:43.491Z,49.13
2018-09-17T11:34:12.513Z,48.65
2018-09-17T11:36:42.424Z,48.07
2018-09-17T11:39:11.642Z,49.34
2018-09-17T11:41:42.647Z,48.34
2018-09-17T11:44:11.612Z,47.32
2018-09-17T11:46:40.519Z,46.78
2018-09-17T11:49:09.429Z,46.44
2018-09-17T11:51:39.408Z,45.58
2018-09-17T11:54:08.363Z,44.98
2018-09-17T11:56:38.370Z,44.22
2018-09-17T11:59:07.381Z,43.64
2018-09-17T12:01:43.589Z,43.89
2018-09-17T12:04:13.949Z,43.76
2018-09-17T12:06:48.125Z,44.04
2018-09-17T12:09:17.986Z,42.47
2018-09-17T12:11:46.992Z,42.76
2018-09-17T12:14:15.988Z,42.25
2018-09-17T12:16:44.920Z,41.64
2018-09-17T12:19:14.841Z,42.03
2018-09-17T12:21:43.873Z,42.74
2018-09-17T12:24:12.787Z,41.68
2018-09-17T12:26:41.668Z,40.72
2018-09-17T12:29:10.574Z,41.76
2018-09-17T12:31:39.410Z,41.75
2018-09-17T12:34:08.395Z,41.58
2018-09-17T12:36:38.492Z,41.77
2018-09-17T12:39:08.650Z,41.26
2018-09-17T12:41:37.672Z,41.27
2018-09-17T12:44:06.591Z,40.71
2018-09-17T12:46:35.535Z,41.13
2018-09-17T12:49:05.498Z,41.69
2018-09-17T12:51:34.382Z,41.05
2018-09-17T12:54:03.288Z,41.22
2018-09-17T12:56:32.201Z,39.89
2018-09-17T12:59:01.247Z,40.25
2018-09-17T13:01:30.151Z,40.20
2018-09-17T13:04:00.144Z,40.68
2018-09-17T13:06:29.126Z,41.00
2018-09-17T13:08:58.012Z,40.25
2018-09-17T13:11:27.888Z,39.32
2018-09-17T13:13:56.889Z,39.82
2018-09-17T13:16:25.863Z,39.31
2018-09-17T13:18:54.746Z,39.00
2018-09-17T13:21:23.672Z,40.30
2018-09-17T13:23:52.532Z,39.28
2018-09-17T13:26:21.448Z,39.92
2018-09-17T13:28:50.380Z,39.88
2018-09-17T13:31:21.355Z,39.68
2018-09-17T13:33:50.268Z,39.95
2018-09-17T13:36:20.256Z,39.99
2018-09-17T13:38:49.168Z,40.50
2018-09-17T13:41:18.153Z,39.66
2018-09-17T13:43:49.109Z,39.46
2018-09-17T13:46:19.019Z,39.61
2018-09-17T13:48:48.943Z,40.33
2018-09-17T13:51:17.840Z,39.73
2018-09-17T13:53:46.759Z,40.13
2018-09-17T13:56:16.686Z,39.99
2018-09-17T13:58:46.624Z,39.89
2018-09-17T14:01:15.557Z,38.46
2018-09-17T14:03:45.536Z,37.42
2018-09-17T14:06:14.442Z,37.73
2018-09-17T14:08:44.363Z,38.12
2018-09-17T14:11:14.315Z,37.43
2018-09-17T14:13:43.312Z,36.75
2018-09-17T14:16:12.316Z,37.37
2018-09-17T14:18:41.255Z,37.21
2018-09-17T14:21:10.342Z,37.54
2018-09-17T14:23:39.276Z,37.67
2018-09-17T14:26:08.306Z,37.81
2018-09-17T14:28:38.206Z,38.68
2018-09-17T14:31:07.385Z,38.48
2018-09-17T14:33:38.512Z,38.81
2018-09-17T14:36:08.735Z,38.41
2018-09-17T14:38:38.702Z,38.18
2018-09-17T14:41:07.638Z,38.46
2018-09-17T14:43:36.740Z,38.98
2018-09-17T14:46:05.955Z,39.29
2018-09-17T14:48:34.861Z,39.58
2018-09-17T14:51:07.704Z,39.26
2018-09-17T14:53:37.888Z,38.87
2018-09-17T14:56:07.747Z,38.68
2018-09-17T14:58:37.677Z,38.64
2018-09-17T15:01:06.680Z,38.42
2018-09-17T15:03:36.522Z,39.30
2018-09-17T15:06:06.643Z,38.81
2018-09-17T15:08:35.595Z,38.45
2018-09-17T15:11:05.525Z,38.95
2018-09-17T15:13:34.374Z,38.98
2018-09-17T15:16:03.425Z,39.43
2018-09-17T15:18:32.356Z,39.75
2018-09-17T15:21:01.234Z,39.90
2018-09-17T15:23:30.130Z,39.56
2018-09-17T15:26:00.080Z,40.33
2018-09-17T15:28:31.056Z,40.20
2018-09-17T15:31:03.909Z,40.81
2018-09-17T15:33:32.977Z,40.83
2018-09-17T15:36:01.887Z,40.50
2018-09-17T15:38:31.056Z,41.06
2018-09-17T15:41:00.098Z,40.73
2018-09-17T15:43:29.965Z,41.63
2018-09-17T15:45:58.874Z,41.41
2018-09-17T15:48:28.795Z,41.49
2018-09-17T15:50:57.758Z,41.46
2018-09-17T15:53:26.913Z,41.92
2018-09-17T15:55:57.098Z,42.47
2018-09-17T15:58:28.474Z,42.36
2018-09-17T16:00:57.547Z,42.73
2018-09-17T16:03:27.903Z,42.82
2018-09-17T16:05:57.918Z,43.34
2018-09-17T16:08:27.789Z,44.15
2018-09-17T16:10:59.411Z,44.44
2018-09-17T16:13:28.866Z,44.01
2018-09-17T16:15:58.507Z,45.25
2018-09-17T16:18:28.295Z,45.22
2018-09-17T16:20:57.700Z,43.96
2018-09-17T16:23:28.112Z,43.80
2018-09-17T16:25:58.645Z,44.88
2018-09-17T16:28:28.193Z,46.02
2018-09-17T16:30:57.774Z,45.31
2018-09-17T16:33:27.427Z,46.74
2018-09-17T16:35:57.006Z,47.17
2018-09-17T16:38:26.783Z,47.61
2018-09-17T16:40:56.021Z,48.57
2018-09-17T16:43:24.904Z,48.57
2018-09-17T16:45:54.006Z,49.42
2018-09-17T16:48:25.056Z,49.61
2018-09-17T16:50:56.150Z,50.59
2018-09-17T16:53:27.507Z,50.99
2018-09-17T16:55:56.782Z,51.39
2018-09-17T16:58:26.302Z,51.89
2018-09-17T17:00:55.603Z,51.75
2018-09-17T17:03:25.069Z,52.45
2018-09-17T17:05:54.757Z,52.60
2018-09-17T17:08:25.267Z,53.20
2018-09-17T17:10:55.394Z,53.99
2018-09-17T17:13:25.376Z,54.49
2018-09-17T17:15:55.414Z,54.32
2018-09-17T17:18:25.335Z,54.44
2018-09-17T17:20:55.349Z,54.73
2018-09-17T17:23:25.457Z,54.21
2018-09-17T17:25:54.342Z,54.31
2018-09-17T17:28:25.465Z,54.41
2018-09-17T17:30:55.396Z,55.03
2018-09-17T17:33:24.440Z,55.31
2018-09-17T17:35:53.572Z,55.18
2018-09-17T17:38:23.506Z,55.58
2018-09-17T17:40:52.534Z,55.96
2018-09-17T17:43:21.413Z,55.58
2018-09-17T17:45:50.509Z,56.02
2018-09-17T17:48:20.512Z,55.14
2018-09-17T17:50:50.668Z,55.37
2018-09-17T17:53:20.490Z,55.44
2018-09-17T17:55:50.070Z,55.39
2018-09-17T17:58:19.798Z,55.70
2018-09-17T18:00:48.876Z,55.07
2018-09-17T18:03:18.797Z,55.29
2018-09-17T18:05:47.754Z,55.12
2018-09-17T18:08:17.635Z,55.55
2018-09-17T18:10:46.576Z,55.83
2018-09-17T18:13:15.585Z,55.83
2018-09-17T18:15:44.921Z,55.24
2018-09-17T18:18:13.925Z,55.97
2018-09-17T18:20:43.021Z,55.82
2018-09-17T18:23:11.949Z,56.10
2018-09-17T18:25:41.860Z,56.43
2018-09-17T18:28:10.876Z,56.41
2018-09-17T18:30:39.813Z,57.00
2018-09-17T18:33:08.712Z,56.63
2018-09-17T18:35:37.641Z,56.69
2018-09-17T18:38:08.552Z,56.80
2018-09-17T18:40:37.551Z,56.32
2018-09-17T18:43:06.597Z,57.08
2018-09-17T18:45:35.549Z,57.16
2018-09-17T18:48:04.521Z,57.19
2018-09-17T18:50:33.428Z,56.93
2018-09-17T18:53:02.382Z,57.55
2018-09-17T18:55:33.407Z,56.80
2018-09-17T18:58:03.380Z,57.57
2018-09-17T19:00:32.410Z,57.48
2018-09-17T19:03:01.399Z,57.38
2018-09-17T19:05:30.313Z,57.78
2018-09-17T19:07:59.253Z,57.58
2018-09-17T19:10:28.249Z,57.40
2018-09-17T19:12:58.159Z,57.35
2018-09-17T19:15:33.535Z,57.90
2018-09-17T19:18:08.844Z,58.40
2018-09-17T19:20:39.973Z,58.60
2018-09-17T19:23:13.987Z,58.67
2018-09-17T19:25:43.123Z,58.69
2018-09-17T19:28:18.208Z,58.84
2018-09-17T19:30:48.202Z,59.10
2018-09-17T19:33:17.133Z,59.57
2018-09-17T19:35:46.540Z,59.54
2018-09-17T19:38:20.677Z,60.32
2018-09-17T19:40:49.715Z,60.19
2018-09-17T19:43:19.634Z,60.03
2018-09-17T19:45:53.813Z,60.22
2018-09-17T19:48:22.678Z,60.31
2018-09-17T19:50:56.874Z,61.30
2018-09-17T19:53:26.019Z,61.59
2018-09-17T19:55:55.400Z,61.81
2018-09-17T19:58:30.163Z,61.97
2018-09-17T20:00:59.669Z,61.58
2018-09-17T20:03:28.955Z,61.92
2018-09-17T20:06:05.091Z,62.25
2018-09-17T20:08:35.224Z,62.86
2018-09-17T20:11:04.178Z,62.28
2018-09-17T20:13:34.122Z,62.66
2018-09-17T20:16:03.085Z,62.08
2018-09-17T20:18:32.721Z,62.22
2018-09-17T20:21:02.642Z,62.27
2018-09-17T20:23:31.607Z,61.79
2018-09-17T20:26:00.625Z,62.03
2018-09-17T20:28:30.605Z,61.83
2018-09-17T20:30:59.528Z,61.94
2018-09-17T20:33:30.930Z,61.51
2018-09-17T20:35:59.919Z,61.42
2018-09-17T20:38:29.059Z,60.33
2018-09-17T20:40:59.062Z,60.66
2018-09-17T20:43:28.038Z,60.42
2018-09-17T20:45:57.228Z,60.61
2018-09-17T20:48:26.148Z,60.47
2018-09-17T20:50:55.024Z,61.04
2018-09-17T20:53:23.910Z,60.62
2018-09-17T20:55:52.801Z,60.97
2018-09-17T20:58:22.737Z,60.50
2018-09-17T21:00:52.710Z,60.32
2018-09-17T21:03:23.586Z,60.60
2018-09-17T21:05:52.577Z,60.25
2018-09-17T21:08:22.659Z,60.91
2018-09-17T21:10:51.531Z,60.65
2018-09-17T21:13:20.529Z,60.10
2018-09-17T21:15:49.734Z,58.58
2018-09-17T21:18:18.846Z,58.60
2018-09-17T21:20:47.801Z,58.94
2018-09-17T21:23:16.787Z,58.50
2018-09-17T21:25:45.718Z,57.96
2018-09-17T21:28:14.686Z,57.95
2018-09-17T21:30:44.755Z,58.27
2018-09-17T21:33:13.769Z,57.84
2018-09-17T21:35:44.686Z,58.11
2018-09-17T21:38:13.631Z,57.59
2018-09-17T21:40:43.768Z,58.54
2018-09-17T21:43:13.724Z,58.73
2018-09-17T21:45:42.698Z,59.20
2018-09-17T21:48:11.570Z,59.14
2018-09-17T21:50:40.521Z,59.56
2018-09-17T21:53:09.419Z,59.69
2018-09-17T21:55:39.425Z,59.47
2018-09-17T21:58:09.772Z,59.70
2018-09-17T22:00:43.929Z,59.87
2018-09-17T22:03:13.130Z,59.86
2018-09-17T22:05:42.001Z,60.08
2018-09-17T22:08:10.980Z,60.77
2018-09-17T22:10:39.937Z,60.41
2018-09-17T22:13:08.949Z,60.58
2018-09-17T22:15:37.925Z,60.04
2018-09-17T22:18:06.881Z,59.92
2018-09-17T22:20:36.822Z,61.08
2018-09-17T22:23:05.762Z,60.51
2018-09-17T22:25:34.889Z,60.58
2018-09-17T22:28:04.053Z,60.92
2018-09-17T22:30:33.034Z,60.69
2018-09-17T22:33:03.039Z,61.14
2018-09-17T22:35:32.119Z,61.29
2018-09-17T22:38:01.145Z,60.46
2018-09-17T22:40:30.092Z,61.12
2018-09-17T22:42:58.985Z,61.30
2018-09-17T22:45:27.968Z,60.99
2018-09-17T22:47:57.856Z,61.57
2018-09-17T22:50:27.858Z,61.59
2018-09-17T22:52:56.956Z,61.78
2018-09-17T22:55:25.941Z,61.93
2018-09-17T22:57:55.812Z,61.34
2018-09-17T23:00:24.732Z,61.65
2018-09-17T23:02:53.629Z,62.32
2018-09-17T23:05:22.556Z,61.69
2018-09-17T23:07:51.467Z,62.74
2018-09-17T23:10:20.342Z,62.72
2018-09-17T23:12:49.243Z,63.09
2018-09-17T23:15:18.160Z,62.97
2018-09-17T23:17:47.016Z,62.88
2018-09-17T23:20:16.091Z,63.46
2018-09-17T23:22:45.013Z,63.38
2018-09-17T23:25:14.489Z,63.79
2018-09-17T23:27:43.719Z,63.59
2018-09-17T23:30:14.060Z,63.67
2018-09-17T23:32:44.415Z,63.92
2018-09-17T23:35:13.604Z,63.55
2018-09-17T23:37:42.606Z,64.44
2018-09-17T23:40:11.559Z,64.68
2018-09-17T23:42:40.887Z,64.92
2018-09-17T23:45:11.279Z,65.24
2018-09-17T23:47:40.690Z,65.29
2018-09-17T23:50:10.055Z,65.37
2018-09-17T23:52:40.251Z,65.50
2018-09-17T23:55:09.650Z,65.91
2018-09-17T23:57:39.712Z,65.63
